Time;durP1;ratioP1;P1;durP2;ratioP2;P2;SDS_P1;SDS_P2;PMS_P1;PMS_P2;Temp;Humidity;BMP_temperature;BMP_pressure;BME280_temperature;BME280_humidity;BME280_pressure;Samples;Min_cycle;Max_cycle;Signal;HPM_P1;HPM_P2
2024/01/29 00:01:33;;;;;;;15.57;11.00;;;1.70;1.00;;;-0.14;100.00;101877.00;4959625;28;20528;-80
2024/01/29 00:04:00;;;;;;;13.75;10.93;;;1.70;99.90;;;0.04;100.00;101900.22;4954445;28;20046;-81
2024/01/29 00:06:28;;;;;;;16.30;11.13;;;1.70;1.00;;;-0.30;100.00;101855.63;4966349;28;20125;-81
2024/01/29 00:08:56;;;;;;;17.65;10.45;;;1.50;99.90;;;-0.37;100.00;101858.75;4972880;28;20041;-81
2024/01/29 00:11:24;;;;;;;18.65;12.52;;;1.50;1.00;;;-0.32;100.00;101883.13;4966391;28;20053;-80
2024/01/29 00:13:52;;;;;;;22.20;13.43;;;1.40;99.90;;;-0.36;100.00;101851.88;4940177;28;20086;-81
2024/01/29 00:16:19;;;;;;;37.35;21.02;;;1.50;8.50;;;-0.18;100.00;101890.63;4959332;28;20053;-81
2024/01/29 00:18:46;;;;;;;39.72;23.48;;;1.60;1.00;;;-0.06;100.00;101883.41;4932443;28;20411;-82
2024/01/29 00:21:13;;;;;;;33.78;22.17;;;1.60;7.00;;;0.06;100.00;101879.56;4966148;28;20047;-81
2024/01/29 00:23:40;;;;;;;25.73;18.67;;;1.70;99.90;;;0.11;100.00;101880.66;4952797;28;20116;-81
2024/01/29 00:26:08;;;;;;;25.25;19.80;;;1.50;99.90;;;0.19;100.00;101883.59;4965448;28;20573;-80
2024/01/29 00:28:35;;;;;;;23.17;19.48;;;1.60;99.90;;;0.19;100.00;101883.59;4951480;29;20143;-81
2024/01/29 00:31:02;;;;;;;21.20;17.40;;;1.80;1.00;;;0.19;100.00;101874.09;4940670;28;20043;-81
2024/01/29 00:33:30;;;;;;;19.15;13.98;;;1.70;99.90;;;0.23;100.00;101885.47;4963079;28;20049;-80
2024/01/29 00:36:00;;;;;;;17.85;13.27;;;1.90;99.90;;;0.15;100.00;101898.09;4950597;28;20493;-80
2024/01/29 00:38:27;;;;;;;14.80;11.73;;;1.60;1.00;;;0.01;100.00;101883.66;4957919;28;20423;-80
2024/01/29 00:40:54;;;;;;;16.42;12.35;;;1.90;1.00;;;-0.07;100.00;101889.41;4932381;28;20115;-80
2024/01/29 00:43:22;;;;;;;17.42;12.15;;;1.70;99.90;;;-0.03;100.00;101880.94;4973498;28;20058;-80
2024/01/29 00:45:49;;;;;;;13.43;10.38;;;1.60;99.90;;;0.02;100.00;101888.91;4947630;28;20076;-80
2024/01/29 00:48:16;;;;;;;13.90;10.80;;;1.60;1.00;;;-0.01;100.00;101871.53;4954930;28;20539;-80
2024/01/29 00:50:43;;;;;;;12.85;10.77;;;1.80;1.00;;;-0.01;100.00;101873.22;4979734;28;20082;-81
2024/01/29 00:53:10;;;;;;;13.68;10.20;;;1.60;99.90;;;-0.14;100.00;101879.59;4953012;28;20078;-80
2024/01/29 00:55:37;;;;;;;15.25;12.00;;;1.40;1.00;;;-0.26;100.00;101867.00;4958734;28;20050;-81
2024/01/29 00:58:05;;;;;;;15.60;11.85;;;1.60;1.00;;;-0.25;100.00;101853.25;4956068;28;20118;-80
2024/01/29 01:00:32;;;;;;;18.63;11.52;;;1.50;99.90;;;-0.22;100.00;101878.38;4971802;28;20518;-80
2024/01/29 01:02:59;;;;;;;15.25;10.77;;;1.40;99.90;;;-0.29;100.00;101872.03;4957456;28;20061;-81
2024/01/29 01:05:26;;;;;;;15.30;10.82;;;1.30;99.90;;;-0.41;100.00;101861.13;4942937;28;20079;-80
2024/01/29 01:07:53;;;;;;;17.33;11.30;;;1.30;1.00;;;-0.68;100.00;101844.44;4971782;28;20635;-80
2024/01/29 01:10:20;;;;;;;17.63;12.10;;;1.30;1.00;;;-0.67;100.00;101874.63;4935402;28;20114;-80
2024/01/29 01:12:47;;;;;;;17.70;11.48;;;1.20;1.00;;;-0.66;100.00;101872.94;4965783;28;20045;-80
2024/01/29 01:15:15;;;;;;;14.63;11.73;;;2.70;99.90;;;-0.74;100.00;101882.91;4967736;28;20085;-80
2024/01/29 01:17:42;;;;;;;14.38;10.95;;;1.10;1.00;;;-0.83;100.00;101861.81;4925087;29;20454;-80
2024/01/29 01:20:11;;;;;;;17.08;12.52;;;1.00;99.90;;;-0.85;100.00;101856.56;4952526;28;20065;-80
2024/01/29 01:22:38;;;;;;;13.80;10.73;;;0.80;1.00;;;-0.65;100.00;101851.44;4960573;28;20058;-80
2024/01/29 01:25:07;;;;;;;16.13;11.38;;;2.40;99.90;;;-0.57;100.00;101863.88;4944973;28;20054;-80
2024/01/29 01:27:34;;;;;;;16.05;11.25;;;1.40;1.00;;;-0.49;100.00;101887.50;4952507;28;20042;-80
2024/01/29 01:30:01;;;;;;;16.38;11.70;;;0.90;95.00;;;-0.52;100.00;101889.97;4952177;28;20122;-81
2024/01/29 01:32:28;;;;;;;15.30;11.25;;;1.00;1.00;;;-0.57;100.00;101882.00;4944242;28;20042;-80
2024/01/29 01:34:55;;;;;;;16.35;10.23;;;1.20;11.80;;;-0.68;100.00;101859.03;4934643;28;20055;-81
2024/01/29 01:37:22;;;;;;;15.07;11.20;;;1.00;72.90;;;-0.79;100.00;101862.00;4932609;29;20122;-80
2024/01/29 01:39:52;;;;;;;15.98;10.35;;;1.00;1.00;;;-0.46;100.00;101897.13;4946513;28;20110;-81
2024/01/29 01:42:20;;;;;;;12.57;10.70;;;1.30;4.40;;;-0.56;100.00;101898.41;4969297;28;20043;-81
2024/01/29 01:44:47;;;;;;;18.13;10.93;;;1.20;1.00;;;-1.05;100.00;101825.50;4959986;28;20061;-81
2024/01/29 01:47:14;;;;;;;17.25;11.23;;;0.90;95.50;;;-0.61;100.00;101882.66;4970195;28;20043;-82
2024/01/29 01:49:42;;;;;;;14.63;11.10;;;1.10;99.90;;;-0.57;100.00;101863.88;4966731;28;20043;-81
2024/01/29 01:52:10;;;;;;;12.68;10.45;;;1.20;99.90;;;-0.55;100.00;101855.31;4951209;28;20046;-81
2024/01/29 01:54:38;;;;;;;14.55;10.80;;;1.20;99.90;;;-0.39;100.00;101888.84;4948342;28;20129;-81
2024/01/29 01:57:07;;;;;;;14.23;10.32;;;1.10;99.90;;;-0.44;100.00;101891.22;4980736;28;20408;-82
2024/01/29 01:59:35;;;;;;;16.75;11.48;;;1.10;99.90;;;-0.35;100.00;101901.09;4944421;29;20047;-81
2024/01/29 02:02:03;;;;;;;14.13;10.80;;;1.20;99.90;;;-0.39;100.00;101887.94;4971921;28;20107;-82
2024/01/29 02:04:30;;;;;;;16.98;10.50;;;1.20;3.50;;;-0.56;100.00;101877.72;4949125;29;20051;-81
2024/01/29 02:06:59;;;;;;;15.45;12.27;;;1.20;99.90;;;-0.55;100.00;101892.41;4963561;28;20043;-81
2024/01/29 02:09:26;;;;;;;18.27;10.52;;;1.10;1.00;;;-0.68;100.00;101870.28;4971861;28;20051;-81
2024/01/29 02:11:54;;;;;;;17.00;11.85;;;1.10;24.20;;;-0.48;100.00;101902.22;4966253;28;20055;-81
2024/01/29 02:14:20;;;;;;;15.05;11.00;;;1.10;1.00;;;-0.68;100.00;101870.28;4962378;28;20046;-81
2024/01/29 02:16:47;;;;;;;17.45;12.80;;;1.70;99.90;;;-0.60;100.00;101902.53;4969440;28;20062;-82
2024/01/29 02:19:17;;;;;;;15.93;11.45;;;0.90;1.00;;;-0.65;100.00;101893.69;4954356;28;20046;-80
2024/01/29 02:21:44;;;;;;;16.08;12.57;;;1.00;12.10;;;-0.70;100.00;101884.84;4947912;28;20082;-81
2024/01/29 02:24:14;;;;;;;;;;;0.90;50.40;;;-0.60;100.00;101884.44;4963127;28;20050;-81
2024/01/29 02:26:47;;;;;;;18.13;11.95;;;1.20;19.60;;;-0.68;100.00;101895.25;4978256;28;19926;-81
2024/01/29 02:29:14;;;;;;;19.85;14.43;;;1.10;71.20;;;-0.86;100.00;101889.28;4965359;28;20056;-81
2024/01/29 02:31:41;;;;;;;21.40;16.40;;;1.60;23.50;;;-0.87;100.00;101891.78;4959358;28;20047;-81
2024/01/29 02:34:08;;;;;;;17.35;12.27;;;0.70;1.00;;;-0.79;100.00;101900.78;4979136;28;20023;-81
2024/01/29 02:36:36;;;;;;;18.10;13.38;;;0.80;99.90;;;-0.82;100.00;101887.72;4955403;28;20051;-82
2024/01/29 02:39:03;;;;;;;15.40;11.88;;;0.90;99.90;;;-0.81;100.00;101896.38;4958297;28;20057;-81
2024/01/29 02:41:30;;;;;;;14.20;12.70;;;0.90;99.90;;;-0.88;100.00;101872.81;4952498;28;20047;-81
2024/01/29 02:44:02;;;;;;;13.90;11.80;;;0.80;99.90;;;-0.82;100.00;101892.88;4962479;28;20061;-81
2024/01/29 02:46:29;;;;;;;13.68;11.18;;;1.20;99.90;;;-0.81;100.00;101891.19;4955631;28;20051;-81
2024/01/29 02:48:56;;;;;;;12.95;11.45;;;0.70;99.90;;;-0.80;100.00;101888.66;4930307;28;20057;-81
2024/01/29 02:51:23;;;;;;;13.32;10.75;;;0.70;99.90;;;-0.82;100.00;101874.78;4958446;28;20057;-81
2024/01/29 02:53:50;;;;;;;14.25;11.40;;;0.70;99.90;;;-0.66;100.00;101891.91;4937408;28;20459;-81
2024/01/29 02:56:17;;;;;;;15.50;11.23;;;1.00;92.70;;;-0.76;100.00;101866.44;4940455;28;20039;-82
2024/01/29 02:58:44;;;;;;;12.77;10.68;;;0.90;50.70;;;-0.70;100.00;101897.78;4949199;28;20039;-82
2024/01/29 03:01:11;;;;;;;13.45;10.90;;;1.10;1.00;;;-0.73;100.00;101890.75;4946298;28;20057;-83
2024/01/29 03:03:38;;;;;;;16.95;12.23;;;1.00;1.00;;;-0.74;100.00;101893.25;4944674;28;20083;-81
2024/01/29 03:06:06;;;;;;;22.08;14.65;;;0.90;78.60;;;-0.75;100.00;101888.91;4950454;28;20067;-82
2024/01/29 03:08:33;;;;;;;23.17;14.85;;;0.60;99.90;;;-0.82;100.00;101872.22;4948542;28;20051;-81
2024/01/29 03:11:00;;;;;;;19.60;13.27;;;0.80;99.90;;;-0.72;100.00;101889.94;4944935;28;20501;-81
2024/01/29 03:13:27;;;;;;;20.77;13.95;;;0.80;99.90;;;-0.70;100.00;101891.69;4932259;29;20134;-81
2024/01/29 03:15:54;;;;;;;15.23;11.27;;;0.80;99.90;;;-0.72;100.00;101881.28;4959257;28;20057;-82
2024/01/29 03:18:21;;;;;;;16.92;10.50;;;0.90;99.90;;;-0.67;100.00;101895.31;4947316;28;20042;-81
2024/01/29 03:20:48;;;;;;;13.95;11.05;;;1.00;99.90;;;-0.66;100.00;101889.34;4954949;28;20115;-81
2024/01/29 03:23:15;;;;;;;13.73;9.68;;;0.80;99.90;;;-0.69;100.00;101881.44;4962779;28;20080;-82
2024/01/29 03:25:45;;;;;;;15.80;10.93;;;0.90;77.40;;;-0.70;100.00;101863.25;4933193;28;20668;-81
2024/01/29 03:28:13;;;;;;;14.35;10.35;;;1.00;98.90;;;-0.63;100.00;101873.97;4962262;28;20130;-81
2024/01/29 03:30:39;;;;;;;18.08;12.75;;;1.10;30.20;;;-0.58;100.00;101881.94;4944017;29;20055;-81
2024/01/29 03:33:07;;;;;;;19.15;12.63;;;1.10;19.20;;;-0.62;100.00;101872.28;4924560;28;20055;-81
2024/01/29 03:35:34;;;;;;;18.05;12.20;;;0.90;1.00;;;-0.58;100.00;101895.72;4926680;29;20052;-81
2024/01/29 03:38:01;;;;;;;15.88;11.60;;;0.90;54.00;;;-0.79;100.00;101880.09;4949170;28;20126;-82
2024/01/29 03:40:28;;;;;;;16.35;10.93;;;0.90;1.00;;;-1.21;100.00;101831.63;4972867;28;20050;-81
2024/01/29 03:42:55;;;;;;;16.42;12.10;;;0.90;1.00;;;-0.82;100.00;101892.00;4961194;28;20134;-81
2024/01/29 03:45:22;;;;;;;15.88;11.23;;;0.90;1.00;;;-0.75;100.00;101886.31;4939482;28;20521;-81
2024/01/29 03:47:49;;;;;;;16.48;11.77;;;2.00;1.00;;;-0.78;100.00;101862.91;4941669;28;20050;-81
2024/01/29 03:50:16;;;;;;;13.82;10.85;;;0.90;53.10;;;-0.72;100.00;101883.84;4962637;28;20725;-81
2024/01/29 03:52:44;;;;;;;13.35;9.95;;;0.90;1.00;;;-0.77;100.00;101865.56;4943860;29;20059;-82
2024/01/29 03:55:11;;;;;;;13.15;10.50;;;0.90;1.00;;;-0.75;100.00;101883.72;4946041;28;20462;-83
2024/01/29 03:57:41;;;;;;;12.65;10.10;;;1.00;1.00;;;-0.80;100.00;101868.00;4954121;28;20042;-81
2024/01/29 04:00:09;;;;;;;14.40;10.55;;;0.90;99.90;;;-0.78;100.00;101881.00;4971153;28;20039;-81
2024/01/29 04:02:39;;;;;;;10.88;9.30;;;0.80;96.20;;;-0.81;100.00;101868.81;4956198;28;20055;-81
2024/01/29 04:05:09;;;;;;;12.27;9.10;;;0.80;47.80;;;-0.77;100.00;101882.78;4938442;28;20061;-82
2024/01/29 04:07:36;;;;;;;13.60;9.88;;;0.90;99.90;;;-0.81;100.00;101862.78;4938039;28;20074;-82
2024/01/29 04:10:10;;;;;;;13.13;10.50;;;0.80;99.90;;;-0.79;100.00;101853.38;4930121;28;20055;-81
2024/01/29 04:12:37;;;;;;;11.20;10.00;;;1.00;85.20;;;-0.69;100.00;101868.53;4951797;28;20047;-81
2024/01/29 04:15:05;;;;;;;13.68;10.43;;;1.00;24.10;;;-0.61;100.00;101868.88;4968619;28;20102;-82
2024/01/29 04:17:32;;;;;;;15.13;11.35;;;0.90;16.90;;;-0.58;100.00;101871.59;4960064;28;20043;-82
2024/01/29 04:19:59;;;;;;;12.80;9.43;;;1.10;99.90;;;-0.53;100.00;101872.69;4941157;28;20204;-82
2024/01/29 04:22:26;;;;;;;17.55;10.90;;;1.00;99.90;;;-0.49;100.00;101869.41;4957754;28;20047;-82
2024/01/29 04:24:53;;;;;;;15.10;11.27;;;1.00;21.50;;;-0.54;100.00;101862.28;4945795;28;20107;-81
2024/01/29 04:27:20;;;;;;;14.10;10.30;;;1.20;86.60;;;-0.61;100.00;101869.75;4954130;28;20050;-82
2024/01/29 04:29:50;;;;;;;14.40;11.30;;;2.90;99.90;;;-0.51;100.00;101881.38;4946294;28;20768;-81
2024/01/29 04:32:20;;;;;;;13.98;9.93;;;1.10;94.30;;;-0.96;100.00;101821.56;4946923;28;20052;-81
2024/01/29 04:34:47;;;;;;;11.32;10.10;;;1.10;99.90;;;-0.67;100.00;101889.25;4947293;28;20047;-82
2024/01/29 04:37:15;;;;;;;14.27;10.75;;;1.10;4.70;;;-0.78;100.00;101866.41;4954261;28;20070;-82
2024/01/29 04:39:42;;;;;;;13.15;11.77;;;1.00;99.90;;;-0.75;100.00;101876.88;4970770;28;20097;-82
2024/01/29 04:42:09;;;;;;;14.40;10.95;;;1.00;99.90;;;-0.78;100.00;101881.00;4936419;28;20058;-82
2024/01/29 04:44:36;;;;;;;15.23;11.75;;;0.90;99.90;;;-0.88;100.00;101865.03;4959266;28;20493;-82
2024/01/29 04:47:06;;;;;;;14.93;11.45;;;0.90;99.90;;;-0.87;100.00;101861.66;4960862;28;20061;-82
2024/01/29 04:49:33;;;;;;;13.63;10.52;;;0.90;99.90;;;-0.84;100.00;101865.22;4948727;28;20113;-82
2024/01/29 04:52:00;;;;;;;14.00;11.50;;;1.00;56.30;;;-0.87;100.00;101860.78;4931200;28;20757;-81
2024/01/29 04:54:28;;;;;;;12.55;10.32;;;0.80;99.90;;;-0.97;100.00;101858.56;4965848;28;20043;-81
2024/01/29 04:56:55;;;;;;;12.18;9.25;;;0.70;90.70;;;-1.16;100.00;101849.94;4941115;28;20063;-81
2024/01/29 04:59:22;;;;;;;10.15;8.95;;;0.80;39.80;;;-1.10;100.00;101878.63;4937619;29;20059;-81
2024/01/29 05:01:49;;;;;;;14.02;10.25;;;0.90;1.00;;;-1.31;100.00;101848.38;4961035;28;20142;-82
2024/01/29 05:04:19;;;;;;;16.38;11.30;;;0.70;93.50;;;-1.72;100.00;101791.34;4938903;28;20051;-81
2024/01/29 05:06:46;;;;;;;11.43;9.75;;;2.00;99.90;;;-1.46;100.00;101853.69;4957757;28;20045;-81
2024/01/29 05:09:14;;;;;;;13.38;10.68;;;0.60;99.90;;;-1.39;100.00;101846.25;4957650;28;20069;-81
2024/01/29 05:11:41;;;;;;;13.13;10.75;;;0.30;99.90;;;-1.47;100.00;101831.28;4957498;28;20063;-81
2024/01/29 05:14:08;;;;;;;16.35;10.73;;;1.10;99.90;;;-1.12;100.00;101900.94;4946485;28;20054;-81
2024/01/29 05:16:35;;;;;;;13.52;10.75;;;1.00;99.90;;;-1.21;100.00;101859.19;4949052;28;20127;-81
2024/01/29 05:19:02;;;;;;;14.48;10.45;;;0.60;99.90;;;-1.45;100.00;101813.25;4951303;28;20106;-81
2024/01/29 05:21:29;;;;;;;12.25;9.30;;;1.50;99.90;;;-1.36;100.00;101828.31;4945771;29;20045;-81
2024/01/29 05:23:56;;;;;;;12.50;10.45;;;0.30;99.90;;;-0.99;100.00;101902.44;4947873;28;20051;-81
2024/01/29 05:26:23;;;;;;;14.23;10.38;;;2.30;99.90;;;-1.18;100.00;101891.19;4943094;28;20074;-81
2024/01/29 05:28:53;;;;;;;11.80;9.20;;;0.70;99.90;;;-1.22;100.00;101871.19;4954370;28;20046;-81
2024/01/29 05:31:20;;;;;;;12.65;9.60;;;0.90;99.90;;;-1.24;100.00;101877.97;4961009;28;20050;-82
2024/01/29 05:33:50;;;;;;;13.13;10.55;;;0.60;99.90;;;-1.44;100.00;101856.34;4945991;28;20047;-82
2024/01/29 05:36:18;;;;;;;10.65;9.23;;;1.10;99.90;;;-1.23;100.00;101894.38;4963602;28;20043;-81
2024/01/29 05:38:44;;;;;;;12.43;9.80;;;0.40;99.90;;;-1.21;100.00;101885.00;4929446;29;20056;-81
2024/01/29 05:41:11;;;;;;;14.48;10.55;;;0.30;1.00;;;-1.21;100.00;101893.63;4959873;28;20043;-80
2024/01/29 05:43:38;;;;;;;11.88;9.25;;;0.90;99.90;;;-1.37;100.00;101878.19;4953031;29;20057;-82
2024/01/29 05:46:05;;;;;;;10.68;9.57;;;0.50;99.90;;;-1.30;100.00;101891.47;4945786;28;20055;-81
2024/01/29 05:48:38;;;;;;;14.18;10.32;;;0.60;99.90;;;-1.47;100.00;101858.78;4992381;28;20093;-82
2024/01/29 05:51:08;;;;;;;13.75;10.00;;;0.40;1.00;;;-1.17;100.00;101894.66;4940438;28;20051;-81
2024/01/29 05:53:38;;;;;;;13.13;9.57;;;0.80;99.90;;;-1.38;100.00;101884.16;4950520;28;20067;-81
2024/01/29 05:56:05;;;;;;;;;;;0.50;99.90;;;-1.63;100.00;101859.72;4956076;28;20047;-81
2024/01/29 05:58:34;;;;;;;12.75;10.23;;;0.80;99.90;;;-1.43;100.00;101896.84;4978669;28;20620;-81
2024/01/29 06:01:01;;;;;;;13.02;10.60;;;0.20;99.90;;;-1.51;100.00;101885.25;4948542;28;20465;-82
2024/01/29 06:03:29;;;;;;;13.55;10.25;;;2.00;99.90;;;-1.52;100.00;101884.38;4961351;28;20134;-82
2024/01/29 06:05:56;;;;;;;13.25;10.82;;;0.70;99.90;;;-1.90;100.00;101842.03;4960489;28;20069;-80
2024/01/29 06:08:23;;;;;;;15.43;10.85;;;1.40;99.90;;;-1.67;100.00;101878.44;4942712;28;20070;-76
2024/01/29 06:10:52;;;;;;;15.93;11.63;;;1.70;99.90;;;-1.77;100.00;101890.88;4969839;28;20038;-76
2024/01/29 06:13:21;;;;;;;12.30;10.07;;;1.10;99.90;;;-1.52;100.00;101914.47;4970224;28;20062;-76
2024/01/29 06:15:48;;;;;;;13.35;10.27;;;0.10;99.90;;;-1.51;100.00;101898.16;4971207;28;20043;-76
2024/01/29 06:18:18;;;;;;;19.45;11.73;;;1.10;99.90;;;-1.44;100.00;101895.06;4932195;29;20048;-78
2024/01/29 06:20:49;;;;;;;14.85;11.45;;;0.20;99.90;;;-1.41;100.00;101904.69;4944404;28;20062;-76
2024/01/29 06:23:19;;;;;;;17.25;11.52;;;0.60;99.90;;;-1.38;100.00;101910.88;4939681;29;20498;-76
2024/01/29 06:25:49;;;;;;;18.23;13.70;;;0.40;99.90;;;-1.62;100.00;101892.47;4963568;28;20306;-76
2024/01/29 06:28:17;;;;;;;17.95;13.02;;;1.80;99.90;;;-1.71;100.00;101900.63;4948335;29;20652;-76
2024/01/29 06:30:44;;;;;;;17.33;15.18;;;0.40;99.90;;;-1.63;100.00;101899.31;4962161;28;20142;-76
2024/01/29 06:33:13;;;;;;;15.68;12.48;;;0.10;99.90;;;-1.39;100.00;101924.63;4958824;28;20043;-76
2024/01/29 06:35:41;;;;;;;;;;;0.00;1.00;;;-1.51;100.00;101901.63;4957763;28;20236;-76
2024/01/29 06:38:10;;;;;;;16.83;13.25;;;0.30;1.00;;;-1.34;100.00;101923.13;4953174;28;20333;-76
2024/01/29 06:40:41;;;;;;;17.60;12.20;;;0.40;1.00;;;-1.33;100.00;101914.56;4957891;28;20158;-76
2024/01/29 06:43:12;;;;;;;16.17;11.48;;;0.50;1.00;;;-1.31;100.00;101925.88;4939513;28;20486;-76
2024/01/29 06:45:38;;;;;;;16.30;12.52;;;0.40;99.90;;;-1.23;100.00;101939.16;4959779;28;20094;-76
2024/01/29 06:48:09;;;;;;;17.88;12.20;;;0.70;1.00;;;-1.22;100.00;101934.91;4953444;28;20113;-76
2024/01/29 06:50:40;;;;;;;13.38;11.57;;;0.50;99.90;;;-1.21;100.00;101944.41;4963272;28;20043;-76
2024/01/29 06:53:07;;;;;;;12.45;10.68;;;0.20;99.90;;;-1.18;100.00;101937.69;4959246;28;20051;-76
2024/01/29 06:55:35;;;;;;;13.48;10.93;;;0.30;1.00;;;-1.15;100.00;101935.28;4958226;28;20043;-75
2024/01/29 06:58:02;;;;;;;12.73;10.98;;;0.50;99.90;;;-1.02;100.00;101948.78;4969052;28;20050;-76
2024/01/29 07:00:31;;;;;;;13.82;10.43;;;0.50;99.90;;;-1.01;100.00;101943.69;4965197;28;20744;-76
2024/01/29 07:02:59;;;;;;;11.45;10.23;;;0.70;99.90;;;-0.98;100.00;101934.31;4968354;28;20070;-76
2024/01/29 07:05:29;;;;;;;15.93;10.07;;;0.60;99.90;;;-0.86;100.00;101947.84;4969377;28;20047;-76
2024/01/29 07:08:00;;;;;;;11.48;9.30;;;0.70;99.90;;;-0.82;100.00;101960.09;4968831;28;20065;-76
2024/01/29 07:10:27;;;;;;;13.60;10.52;;;0.70;99.90;;;-0.83;100.00;101947.97;4938070;29;20471;-76
2024/01/29 07:12:54;;;;;;;12.32;9.77;;;0.90;99.90;;;-0.73;100.00;101959.63;4957835;28;20051;-76
2024/01/29 07:15:21;;;;;;;14.10;10.48;;;0.80;99.90;;;-0.76;100.00;101944.00;4966722;28;20043;-76
2024/01/29 07:17:48;;;;;;;12.35;11.00;;;0.90;99.90;;;-0.65;100.00;101963.50;4965556;28;20126;-76
2024/01/29 07:20:21;;;;;;;11.10;9.55;;;0.90;99.90;;;-0.69;100.00;101951.25;4945458;28;20131;-76
2024/01/29 07:22:49;;;;;;;13.85;9.70;;;1.00;99.90;;;-0.63;100.00;101963.53;4945402;28;20047;-76
2024/01/29 07:25:16;;;;;;;14.25;10.52;;;0.90;99.90;;;-0.71;100.00;101950.25;4953554;28;20058;-76
2024/01/29 07:27:43;;;;;;;14.80;10.70;;;0.90;99.90;;;-0.68;100.00;101950.44;4960874;28;20047;-76
2024/01/29 07:30:11;;;;;;;14.57;11.63;;;1.00;99.90;;;-0.60;100.00;101950.78;4950002;28;20051;-76
2024/01/29 07:32:38;;;;;;;11.90;10.60;;;1.00;99.90;;;-0.50;100.00;101967.63;4966928;28;20047;-76
2024/01/29 07:35:07;;;;;;;12.85;10.80;;;1.20;99.90;;;-0.46;100.00;101967.84;4952474;28;20115;-76
2024/01/29 07:37:34;;;;;;;13.50;11.48;;;1.10;99.90;;;-0.47;100.00;101967.75;4936870;28;20046;-76
2024/01/29 07:40:03;;;;;;;11.95;10.60;;;1.20;99.90;;;-0.42;100.00;101971.44;4960607;28;20055;-76
2024/01/29 07:42:33;;;;;;;10.73;9.60;;;1.10;99.90;;;-0.46;100.00;101972.13;4955197;28;20049;-77
2024/01/29 07:45:00;;;;;;;11.18;9.93;;;1.20;99.90;;;-0.37;100.00;101972.56;4967159;28;20050;-76
2024/01/29 07:47:27;;;;;;;11.13;9.25;;;1.30;99.90;;;-0.37;100.00;101966.50;4956678;28;20419;-77
2024/01/29 07:49:54;;;;;;;11.32;9.88;;;1.30;99.90;;;-0.32;100.00;101971.06;4956958;28;20137;-76
2024/01/29 07:52:22;;;;;;;9.45;8.23;;;1.20;99.90;;;-0.21;100.00;101993.97;4965275;28;20082;-76
2024/01/29 07:54:49;;;;;;;12.20;9.25;;;1.40;99.90;;;-0.20;100.00;102000.91;4966301;28;20042;-77
2024/01/29 07:57:16;;;;;;;11.60;8.52;;;1.30;99.90;;;-0.24;100.00;101975.69;4954274;28;20043;-76
2024/01/29 07:59:45;;;;;;;10.00;8.32;;;1.40;99.90;;;-0.12;100.00;101983.16;4953329;28;20070;-77
2024/01/29 08:02:12;;;;;;;11.02;9.20;;;1.40;99.90;;;-0.16;100.00;101971.78;4956838;28;20506;-77
2024/01/29 08:04:40;;;;;;;13.30;10.68;;;1.50;99.90;;;-0.03;100.00;101980.97;4950392;28;20066;-77
2024/01/29 08:07:07;;;;;;;13.57;10.77;;;1.60;99.90;;;0.03;100.00;101980.38;4964541;28;20044;-76
2024/01/29 08:09:34;;;;;;;13.50;11.32;;;1.60;99.90;;;0.13;100.00;101992.91;4979115;28;20524;-76
2024/01/29 08:12:01;;;;;;;13.35;10.52;;;1.50;99.90;;;0.13;100.00;101980.84;4962822;28;20454;-76
2024/01/29 08:14:28;;;;;;;13.18;10.10;;;1.80;1.00;;;0.21;100.00;101985.50;4977839;28;20070;-76
2024/01/29 08:16:56;;;;;;;10.25;9.18;;;2.00;1.00;;;0.25;100.00;101990.00;4948645;28;20053;-76
2024/01/29 08:19:23;;;;;;;14.65;10.05;;;1.80;1.00;;;0.34;100.00;101995.59;4948802;28;20039;-76
2024/01/29 08:21:53;;;;;;;10.93;9.30;;;1.80;1.00;;;0.44;100.00;102002.06;4953346;28;20508;-76
2024/01/29 08:24:20;;;;;;;10.60;9.50;;;1.90;1.00;;;0.45;100.00;101998.66;4968672;28;20050;-76
2024/01/29 08:26:47;;;;;;;12.02;9.50;;;2.00;1.00;;;0.58;100.00;102004.38;4944151;29;20054;-76
2024/01/29 08:29:15;;;;;;;14.75;11.05;;;2.20;99.90;;;0.60;100.00;102000.13;4949592;28;20071;-76
2024/01/29 08:31:42;;;;;;;11.48;9.25;;;2.10;1.00;;;0.70;100.00;102004.88;4968435;28;20050;-76
2024/01/29 08:34:11;;;;;;;11.55;9.82;;;3.30;99.90;;;0.69;100.00;101997.91;4951256;28;20506;-76
2024/01/29 08:36:39;;;;;;;13.43;9.93;;;2.20;1.00;;;0.82;100.00;102007.13;4949700;28;20039;-76
2024/01/29 08:39:09;;;;;;;;;;;2.30;99.90;;;0.87;100.00;102003.00;4948038;28;20051;-77
2024/01/29 08:41:36;;;;;;;12.32;9.40;;;2.60;99.90;;;0.96;100.00;102006.00;4957838;28;19972;-76
2024/01/29 08:44:04;;;;;;;12.65;9.27;;;2.40;1.00;;;1.03;100.00;102006.25;4948523;28;20102;-76
2024/01/29 08:46:32;;;;;;;12.50;9.95;;;2.50;1.00;;;1.04;100.00;101998.56;4948421;28;20043;-76
2024/01/29 08:48:59;;;;;;;10.32;9.18;;;2.60;1.00;;;1.14;100.00;102007.59;4956135;28;20066;-76
2024/01/29 08:51:26;;;;;;;13.30;9.25;;;2.70;1.00;;;1.17;100.00;101993.84;4953322;28;20046;-76
2024/01/29 08:53:54;;;;;;;12.18;9.63;;;2.70;99.90;;;1.28;100.00;102005.53;4929674;28;20055;-76
2024/01/29 08:56:21;;;;;;;11.10;9.50;;;2.70;99.90;;;1.34;100.00;101999.72;4972113;28;20474;-76
2024/01/29 08:58:48;;;;;;;11.85;9.20;;;2.90;1.00;;;1.46;100.00;102012.28;4951447;28;20047;-76
2024/01/29 09:01:15;;;;;;;13.10;9.02;;;3.00;1.00;;;1.56;100.00;102014.44;4952107;28;20074;-76
2024/01/29 09:03:42;;;;;;;10.43;9.25;;;4.00;99.90;;;1.61;100.00;102006.84;4949611;28;20090;-76
2024/01/29 09:06:09;;;;;;;13.27;10.40;;;3.00;1.00;;;1.70;100.00;102013.28;4971400;28;20055;-76
2024/01/29 09:08:37;;;;;;;11.05;9.27;;;3.20;1.00;;;1.74;100.00;102005.59;4949943;28;20049;-76
2024/01/29 09:11:04;;;;;;;11.63;9.38;;;3.20;99.90;;;1.72;100.00;101989.09;4946152;28;20078;-77
2024/01/29 09:13:31;;;;;;;14.43;11.82;;;3.30;1.00;;;1.88;100.00;102001.84;4950843;28;20107;-76
2024/01/29 09:15:59;;;;;;;14.23;11.57;;;3.40;1.00;;;1.95;100.00;102011.66;4951733;28;20047;-76
2024/01/29 09:18:26;;;;;;;19.40;15.25;;;3.40;99.90;;;2.09;100.00;102026.84;4968595;28;20043;-76
2024/01/29 09:20:53;;;;;;;15.60;11.82;;;4.80;1.00;;;2.14;100.00;102009.72;4967206;28;20442;-76
2024/01/29 09:23:20;;;;;;;15.65;11.05;;;3.60;1.00;;;2.20;100.00;102002.16;4960188;28;20070;-76
2024/01/29 09:25:47;;;;;;;21.27;16.30;;;3.70;1.00;;;2.28;100.00;102007.63;4940609;28;20403;-76
2024/01/29 09:28:14;;;;;;;20.25;16.55;;;4.40;1.00;;;2.45;100.00;102023.84;4955021;28;20498;-76
2024/01/29 09:30:41;;;;;;;16.52;14.07;;;3.80;99.90;;;2.50;100.00;102018.81;4976971;28;20055;-76
2024/01/29 09:33:11;;;;;;;;;;;3.90;99.90;;;2.58;100.00;102016.50;4967823;28;20082;-76
2024/01/29 09:35:48;;;;;;;18.98;14.27;;;4.70;99.90;;;2.68;100.00;102026.38;4961421;28;20479;-76
2024/01/29 09:38:15;;;;;;;13.55;11.85;;;4.10;99.90;;;2.77;100.00;102018.91;4960028;28;20062;-77
2024/01/29 09:40:46;;;;;;;17.75;13.65;;;4.20;99.90;;;2.78;100.00;102007.66;4960291;28;20047;-77
2024/01/29 09:43:17;;;;;;;14.65;13.05;;;4.20;99.90;;;2.90;100.00;102011.53;4968133;28;20038;-77
2024/01/29 09:45:45;;;;;;;19.83;15.98;;;4.60;99.90;;;3.02;100.00;102021.47;4951358;28;20066;-75
2024/01/29 09:48:15;;;;;;;14.57;10.77;;;4.50;99.90;;;3.08;100.00;102017.34;4931726;28;20518;-76
2024/01/29 09:50:49;;;;;;;13.95;12.48;;;5.00;99.90;;;3.17;100.00;102023.66;4978248;28;20053;-76
2024/01/29 09:53:20;;;;;;;15.45;12.23;;;4.60;99.90;;;3.23;100.00;102024.75;4943173;28;20074;-76
2024/01/29 09:55:48;;;;;;;14.02;10.30;;;4.70;99.90;;;3.24;100.00;102005.72;4956050;28;20054;-76
2024/01/29 09:58:15;;;;;;;14.02;9.02;;;4.70;99.90;;;3.30;100.00;102007.63;4963504;28;20043;-76
2024/01/29 10:00:42;;;;;;;11.45;10.07;;;4.70;99.90;;;3.38;100.00;102007.88;4949220;28;20104;-76
2024/01/29 10:03:30;;;;;;;13.32;11.77;;;4.80;99.90;;;3.48;100.00;102009.94;4958783;28;20046;-76
2024/01/29 10:05:58;;;;;;;14.50;11.90;;;4.90;93.60;;;3.52;100.00;102004.00;4940076;28;20047;-76
2024/01/29 10:08:29;;;;;;;14.77;10.65;;;4.90;99.90;;;3.60;100.00;102005.97;4927045;28;20039;-76